コルカタ の空港の天気 - METARとTAF

ネータージー・スバース・チャンドラ・ボース国際空港 ( VECC / CCU ) - インド コルカタ
飛行場実況気象(Metar)
観測時間10/01 21:00 IST (10/01 15:30 UTC)
風向・風速静穏 0m/s
視程3500m
天気現象煙霧
少しの雲 雲底高度 550m
少しの雲 雲底高度 910m
全天の4割程度の雲 雲底高度 3050m
気温28℃
湿度94%
気圧1004hPa
METARVECC 011530Z 00000KT 3500 HZ FEW018 FEW030CB SCT100 28/27 Q1004 NOSIG
過去の天気等 Google飛行場航空写真 Wunderground天気予報

過去48時間のMETAR

飛行場予報(TAF)
発表時間: 10/01 19:30 IST (10/01 14:00 UTC)
予報対象時間: 1日20時 IST ~ 2日5時 IST
風向・風速東 3m/s
視程3500m
天気現象煙霧
全天の4割程度の雲 雲底高度 550m
全天の4割程度の雲 雲底高度 3050m
2日2時 IST ~ 2日4時 IST に徐々に
風向・風速静穏
視程2800m
天気現象煙霧
TAF VECC 011400Z 0115/0124 10005KT 3500 HZ SCT018 SCT100
BECMG 0121/0123 00000KT 2800 HZ